Aeroporto :
LOGIN :

Iscrizione | Disclaimer

   EN    FR    IT 

 










Sommario :    VFR   VFR Marginale   IFR   IFR Intensivo   IFR Molto Intensivo
Visibilità : 
Base nubi : 
>= 8 km
>= 3000ft
5 / 8 km
1000 / 3000 ft
1500m / 5 km
500 / 1000 ft
800 / 1500m
200 / 500 ft
< 800m
< 200 ft
Simboli :   Temporali  Nebbia  Neve Forte  Precipitazioni Forti  Vento > 20 kt
SIGMETs :   Varie  Temporali  Ghiacco  Turbolenza  Onda orograficha  Ceneri Vulcaniche







- Altitudine del aeroporto : 1900 ft
- Codice IATA : FEZ


GMFF - Fez Saiss

ULTIMO METAR :
  • 210100Z 19005KT 9999 FEW016 SCT030 BKN080 12/11 Q1017 NOSIG

METARs OBSOLETI :
  • 210030Z 21003KT 9999 FEW016 SCT030 BKN080 12/11 Q1017 NOSIG
  • 210000Z 18004KT 9999 FEW016 SCT030 BKN080 13/11 Q1017 NOSIG
  • 202330Z VRB02KT 9999 FEW016 SCT030 BKN080 13/11 Q1017 NOSIG
  • 202300Z 00000KT 9999 FEW016 SCT030 BKN080 13/11 Q1017 NOSIG
  • 202230Z 22005KT 9999 FEW016 SCT030 BKN080 13/12 Q1017 NOSIG

TAF TAF GMFF
Valido dal 21 a 00 ore il 22 a 06 ore UTC


202300Z 2100/2206 22005KT 9999 FEW016 SCT030 BKN080
BECMG 2103/2106 20004KT SCT026 SCT100
BECMG 2110/2112 14010KT SCT030 SCT300
Nessun NOTAM noto per questo aeroporto.
2 SIGMETs conosciuti per la FIR Casablanca (GMMM) :
 
Forte onda orograficha
GMMM SIGMET O4 VALID 202230/210230 GMMC
GMMM CASABLANCA FIR SEV MTW FCST N OF LINE N3325 W00146 - N3356 W003 45 - N3507 W00422 FL020/140 STNR WKN=
Temporali affogati
GMMM SIGMET 03 VALID 202315/210315 GMMC
GMMM CASABLANCA FIR EMBD TS FCST W OF LINE N3537 W00403 - N3454 W006 56 - N3302 W00856 - N3022 W01104 TOP FL280 MOV NE NC=



MetMap, La meteo Aeronautica in un colpo d'occhio ! - Copyright ORBIFLY Dicembre 2007 - Disclaimer

ORBIFLY MET'MAP TEAM :

Programmazione e sviluppo : Alexandra Zaïnal
Concezione e sviluppo : Baudouin d'Aumeries
Co-Programmazione e sviluppo : Marc-Olivier Méhu
Supporto tecnico e logistico : Manuel Goepfert
Aiuto per la traduzione : Arnaldo La Scala

Contatto : metmap@orbifly.com




FONTI E CREDITI :

   NOAA